sensor_id;sensor_type;location;lat;lon;timestamp;P1;durP1;ratioP1;P2;durP2;ratioP2
15799;SDS011;8002;51.196;7.010;2024-01-11T00:01:59;19.07;;;14.63;;
15799;SDS011;8002;51.196;7.010;2024-01-11T00:04:27;22.30;;;14.63;;
15799;SDS011;8002;51.196;7.010;2024-01-11T00:06:53;23.13;;;14.27;;
15799;SDS011;8002;51.196;7.010;2024-01-11T00:09:19;22.77;;;15.10;;
15799;SDS011;8002;51.196;7.010;2024-01-11T00:11:45;20.10;;;14.70;;
15799;SDS011;8002;51.196;7.010;2024-01-11T00:14:12;21.17;;;14.50;;
15799;SDS011;8002;51.196;7.010;2024-01-11T00:16:38;22.10;;;14.23;;
15799;SDS011;8002;51.196;7.010;2024-01-11T00:19:04;18.37;;;13.43;;
15799;SDS011;8002;51.196;7.010;2024-01-11T00:21:32;20.60;;;14.10;;
15799;SDS011;8002;51.196;7.010;2024-01-11T00:23:58;16.47;;;12.17;;
15799;SDS011;8002;51.196;7.010;2024-01-11T00:26:25;18.27;;;14.33;;
15799;SDS011;8002;51.196;7.010;2024-01-11T00:28:51;17.80;;;13.60;;
15799;SDS011;8002;51.196;7.010;2024-01-11T00:31:17;18.93;;;12.67;;
15799;SDS011;8002;51.196;7.010;2024-01-11T00:33:43;18.20;;;13.43;;
15799;SDS011;8002;51.196;7.010;2024-01-11T00:36:10;18.27;;;12.53;;
15799;SDS011;8002;51.196;7.010;2024-01-11T00:38:37;18.77;;;13.93;;
15799;SDS011;8002;51.196;7.010;2024-01-11T00:41:04;20.37;;;13.60;;
15799;SDS011;8002;51.196;7.010;2024-01-11T00:43:30;19.13;;;13.83;;
15799;SDS011;8002;51.196;7.010;2024-01-11T00:45:56;22.30;;;14.20;;
15799;SDS011;8002;51.196;7.010;2024-01-11T00:48:23;20.70;;;14.30;;
15799;SDS011;8002;51.196;7.010;2024-01-11T00:50:49;22.13;;;14.10;;
15799;SDS011;8002;51.196;7.010;2024-01-11T00:53:15;21.03;;;14.43;;
15799;SDS011;8002;51.196;7.010;2024-01-11T00:55:43;23.23;;;14.67;;
15799;SDS011;8002;51.196;7.010;2024-01-11T00:58:09;19.47;;;12.70;;
15799;SDS011;8002;51.196;7.010;2024-01-11T01:00:35;21.90;;;14.07;;
15799;SDS011;8002;51.196;7.010;2024-01-11T01:03:02;19.70;;;14.10;;
15799;SDS011;8002;51.196;7.010;2024-01-11T01:05:28;20.50;;;14.13;;
15799;SDS011;8002;51.196;7.010;2024-01-11T01:07:55;20.67;;;13.80;;
15799;SDS011;8002;51.196;7.010;2024-01-11T01:10:21;19.37;;;13.77;;
15799;SDS011;8002;51.196;7.010;2024-01-11T01:12:48;17.37;;;12.00;;
15799;SDS011;8002;51.196;7.010;2024-01-11T01:15:14;16.53;;;11.90;;
15799;SDS011;8002;51.196;7.010;2024-01-11T01:17:40;16.63;;;12.93;;
15799;SDS011;8002;51.196;7.010;2024-01-11T01:20:07;17.87;;;12.77;;
15799;SDS011;8002;51.196;7.010;2024-01-11T01:22:33;18.63;;;13.03;;
15799;SDS011;8002;51.196;7.010;2024-01-11T01:25:00;18.00;;;12.57;;
15799;SDS011;8002;51.196;7.010;2024-01-11T01:27:26;18.80;;;13.83;;
15799;SDS011;8002;51.196;7.010;2024-01-11T01:29:54;18.50;;;13.30;;
15799;SDS011;8002;51.196;7.010;2024-01-11T01:32:20;17.60;;;12.47;;
15799;SDS011;8002;51.196;7.010;2024-01-11T01:34:46;18.90;;;13.43;;
15799;SDS011;8002;51.196;7.010;2024-01-11T01:37:13;18.17;;;11.70;;
15799;SDS011;8002;51.196;7.010;2024-01-11T01:39:39;18.07;;;11.23;;
15799;SDS011;8002;51.196;7.010;2024-01-11T01:42:05;19.37;;;13.03;;
15799;SDS011;8002;51.196;7.010;2024-01-11T01:44:32;15.77;;;11.90;;
15799;SDS011;8002;51.196;7.010;2024-01-11T01:46:59;19.13;;;13.03;;
15799;SDS011;8002;51.196;7.010;2024-01-11T01:49:26;16.07;;;11.67;;
15799;SDS011;8002;51.196;7.010;2024-01-11T01:51:52;22.40;;;12.80;;
15799;SDS011;8002;51.196;7.010;2024-01-11T01:54:19;19.10;;;13.10;;
15799;SDS011;8002;51.196;7.010;2024-01-11T01:56:46;22.57;;;13.47;;
15799;SDS011;8002;51.196;7.010;2024-01-11T01:59:13;24.03;;;12.97;;
15799;SDS011;8002;51.196;7.010;2024-01-11T02:01:39;19.57;;;12.90;;
15799;SDS011;8002;51.196;7.010;2024-01-11T02:04:07;19.73;;;13.07;;
15799;SDS011;8002;51.196;7.010;2024-01-11T02:06:34;20.43;;;12.30;;
15799;SDS011;8002;51.196;7.010;2024-01-11T02:09:00;14.67;;;11.37;;
15799;SDS011;8002;51.196;7.010;2024-01-11T02:11:28;22.03;;;12.03;;
15799;SDS011;8002;51.196;7.010;2024-01-11T02:13:54;16.87;;;11.60;;
15799;SDS011;8002;51.196;7.010;2024-01-11T02:16:22;16.40;;;10.30;;
15799;SDS011;8002;51.196;7.010;2024-01-11T02:18:48;17.53;;;11.27;;
15799;SDS011;8002;51.196;7.010;2024-01-11T02:21:16;17.00;;;10.60;;
15799;SDS011;8002;51.196;7.010;2024-01-11T02:23:44;14.97;;;10.60;;
15799;SDS011;8002;51.196;7.010;2024-01-11T02:26:13;13.13;;;10.07;;
15799;SDS011;8002;51.196;7.010;2024-01-11T02:28:43;16.00;;;11.17;;
15799;SDS011;8002;51.196;7.010;2024-01-11T02:31:09;13.97;;;10.63;;
15799;SDS011;8002;51.196;7.010;2024-01-11T02:33:36;15.13;;;10.07;;
15799;SDS011;8002;51.196;7.010;2024-01-11T02:36:02;14.27;;;9.50;;
15799;SDS011;8002;51.196;7.010;2024-01-11T02:38:29;16.33;;;10.47;;
15799;SDS011;8002;51.196;7.010;2024-01-11T02:40:55;16.50;;;10.57;;
15799;SDS011;8002;51.196;7.010;2024-01-11T02:43:23;16.13;;;10.03;;
15799;SDS011;8002;51.196;7.010;2024-01-11T02:45:49;18.13;;;10.90;;
15799;SDS011;8002;51.196;7.010;2024-01-11T02:48:15;16.13;;;11.03;;
15799;SDS011;8002;51.196;7.010;2024-01-11T02:50:42;13.90;;;10.73;;
15799;SDS011;8002;51.196;7.010;2024-01-11T02:53:08;18.20;;;11.00;;
15799;SDS011;8002;51.196;7.010;2024-01-11T02:55:34;12.67;;;10.10;;
15799;SDS011;8002;51.196;7.010;2024-01-11T02:57:59;15.47;;;10.67;;
15799;SDS011;8002;51.196;7.010;2024-01-11T03:00:27;13.87;;;11.33;;
15799;SDS011;8002;51.196;7.010;2024-01-11T03:02:53;16.07;;;10.43;;
15799;SDS011;8002;51.196;7.010;2024-01-11T03:05:20;17.93;;;12.30;;
15799;SDS011;8002;51.196;7.010;2024-01-11T03:07:46;15.33;;;10.57;;
15799;SDS011;8002;51.196;7.010;2024-01-11T03:10:12;15.47;;;10.80;;
15799;SDS011;8002;51.196;7.010;2024-01-11T03:12:39;13.97;;;10.43;;
15799;SDS011;8002;51.196;7.010;2024-01-11T03:15:06;18.70;;;12.20;;
15799;SDS011;8002;51.196;7.010;2024-01-11T03:17:33;13.77;;;10.77;;
15799;SDS011;8002;51.196;7.010;2024-01-11T03:20:00;19.23;;;11.70;;
15799;SDS011;8002;51.196;7.010;2024-01-11T03:22:28;16.53;;;12.13;;
15799;SDS011;8002;51.196;7.010;2024-01-11T03:24:54;16.97;;;11.97;;
15799;SDS011;8002;51.196;7.010;2024-01-11T03:27:21;17.80;;;12.70;;
15799;SDS011;8002;51.196;7.010;2024-01-11T03:29:48;18.90;;;12.13;;
15799;SDS011;8002;51.196;7.010;2024-01-11T03:32:15;16.23;;;11.53;;
15799;SDS011;8002;51.196;7.010;2024-01-11T03:34:43;18.33;;;12.87;;
15799;SDS011;8002;51.196;7.010;2024-01-11T03:37:09;18.53;;;12.40;;
15799;SDS011;8002;51.196;7.010;2024-01-11T03:39:35;16.90;;;12.03;;
15799;SDS011;8002;51.196;7.010;2024-01-11T03:42:02;17.70;;;12.43;;
15799;SDS011;8002;51.196;7.010;2024-01-11T03:44:29;17.20;;;12.57;;
15799;SDS011;8002;51.196;7.010;2024-01-11T03:46:56;20.10;;;11.57;;
15799;SDS011;8002;51.196;7.010;2024-01-11T03:49:22;15.70;;;11.17;;
15799;SDS011;8002;51.196;7.010;2024-01-11T03:51:50;19.50;;;12.17;;
15799;SDS011;8002;51.196;7.010;2024-01-11T03:54:16;16.67;;;12.97;;
15799;SDS011;8002;51.196;7.010;2024-01-11T03:56:42;18.40;;;12.57;;
15799;SDS011;8002;51.196;7.010;2024-01-11T03:59:10;18.60;;;12.93;;
15799;SDS011;8002;51.196;7.010;2024-01-11T04:01:38;22.87;;;12.73;;
15799;SDS011;8002;51.196;7.010;2024-01-11T04:04:05;32.77;;;17.33;;
15799;SDS011;8002;51.196;7.010;2024-01-11T04:06:31;26.60;;;16.23;;
15799;SDS011;8002;51.196;7.010;2024-01-11T04:08:59;23.63;;;14.70;;
15799;SDS011;8002;51.196;7.010;2024-01-11T04:11:26;19.13;;;13.03;;
15799;SDS011;8002;51.196;7.010;2024-01-11T04:13:53;22.43;;;13.67;;
15799;SDS011;8002;51.196;7.010;2024-01-11T04:16:19;20.80;;;12.50;;
15799;SDS011;8002;51.196;7.010;2024-01-11T04:18:46;20.13;;;13.93;;
15799;SDS011;8002;51.196;7.010;2024-01-11T04:21:19;21.97;;;14.20;;
15799;SDS011;8002;51.196;7.010;2024-01-11T04:23:46;19.97;;;12.87;;
15799;SDS011;8002;51.196;7.010;2024-01-11T04:26:13;19.67;;;13.87;;
15799;SDS011;8002;51.196;7.010;2024-01-11T04:28:40;17.70;;;13.67;;
15799;SDS011;8002;51.196;7.010;2024-01-11T04:31:07;19.53;;;13.70;;
15799;SDS011;8002;51.196;7.010;2024-01-11T04:33:34;19.17;;;13.13;;
15799;SDS011;8002;51.196;7.010;2024-01-11T04:36:00;20.77;;;12.73;;
15799;SDS011;8002;51.196;7.010;2024-01-11T04:38:26;20.33;;;14.23;;
15799;SDS011;8002;51.196;7.010;2024-01-11T04:40:52;18.80;;;13.10;;
15799;SDS011;8002;51.196;7.010;2024-01-11T04:43:20;19.27;;;13.53;;
15799;SDS011;8002;51.196;7.010;2024-01-11T04:45:46;22.50;;;13.90;;
15799;SDS011;8002;51.196;7.010;2024-01-11T04:48:13;18.00;;;12.70;;
15799;SDS011;8002;51.196;7.010;2024-01-11T04:50:39;20.80;;;13.57;;
15799;SDS011;8002;51.196;7.010;2024-01-11T04:53:05;19.03;;;12.80;;
15799;SDS011;8002;51.196;7.010;2024-01-11T04:55:32;18.60;;;14.53;;
15799;SDS011;8002;51.196;7.010;2024-01-11T04:57:58;18.47;;;13.23;;
15799;SDS011;8002;51.196;7.010;2024-01-11T05:00:26;19.27;;;12.43;;
15799;SDS011;8002;51.196;7.010;2024-01-11T05:02:52;21.03;;;13.47;;
15799;SDS011;8002;51.196;7.010;2024-01-11T05:05:18;21.50;;;14.00;;
15799;SDS011;8002;51.196;7.010;2024-01-11T05:07:45;20.00;;;13.93;;
15799;SDS011;8002;51.196;7.010;2024-01-11T05:10:11;21.60;;;13.13;;
15799;SDS011;8002;51.196;7.010;2024-01-11T05:12:37;19.17;;;12.93;;
15799;SDS011;8002;51.196;7.010;2024-01-11T05:15:04;22.13;;;13.83;;
15799;SDS011;8002;51.196;7.010;2024-01-11T05:17:32;22.07;;;12.90;;
15799;SDS011;8002;51.196;7.010;2024-01-11T05:19:58;19.37;;;13.37;;
15799;SDS011;8002;51.196;7.010;2024-01-11T05:22:25;17.63;;;12.83;;
15799;SDS011;8002;51.196;7.010;2024-01-11T05:24:51;20.00;;;13.43;;
15799;SDS011;8002;51.196;7.010;2024-01-11T05:27:17;20.37;;;13.40;;
15799;SDS011;8002;51.196;7.010;2024-01-11T05:29:44;21.10;;;14.63;;
15799;SDS011;8002;51.196;7.010;2024-01-11T05:32:10;21.17;;;12.87;;
15799;SDS011;8002;51.196;7.010;2024-01-11T05:34:38;19.57;;;12.43;;
15799;SDS011;8002;51.196;7.010;2024-01-11T05:37:04;20.93;;;13.07;;
15799;SDS011;8002;51.196;7.010;2024-01-11T05:39:30;18.50;;;13.30;;
15799;SDS011;8002;51.196;7.010;2024-01-11T05:41:57;22.90;;;15.00;;
15799;SDS011;8002;51.196;7.010;2024-01-11T05:44:23;20.07;;;14.77;;
15799;SDS011;8002;51.196;7.010;2024-01-11T05:46:49;22.83;;;14.53;;
15799;SDS011;8002;51.196;7.010;2024-01-11T05:49:16;20.13;;;14.23;;
15799;SDS011;8002;51.196;7.010;2024-01-11T05:51:43;19.33;;;14.13;;
15799;SDS011;8002;51.196;7.010;2024-01-11T05:54:09;22.10;;;15.13;;
15799;SDS011;8002;51.196;7.010;2024-01-11T05:56:36;19.03;;;14.77;;
15799;SDS011;8002;51.196;7.010;2024-01-11T05:59:02;19.23;;;12.67;;
15799;SDS011;8002;51.196;7.010;2024-01-11T06:01:28;22.90;;;14.97;;
15799;SDS011;8002;51.196;7.010;2024-01-11T06:03:55;23.17;;;15.87;;
15799;SDS011;8002;51.196;7.010;2024-01-11T06:06:21;19.67;;;14.30;;
15799;SDS011;8002;51.196;7.010;2024-01-11T06:08:49;21.17;;;14.67;;
15799;SDS011;8002;51.196;7.010;2024-01-11T06:11:15;21.73;;;14.07;;
15799;SDS011;8002;51.196;7.010;2024-01-11T06:13:43;19.13;;;14.70;;
15799;SDS011;8002;51.196;7.010;2024-01-11T06:16:09;20.57;;;14.60;;
15799;SDS011;8002;51.196;7.010;2024-01-11T06:18:35;21.97;;;15.23;;
15799;SDS011;8002;51.196;7.010;2024-01-11T06:21:02;20.37;;;14.60;;
15799;SDS011;8002;51.196;7.010;2024-01-11T06:23:28;23.23;;;14.80;;
15799;SDS011;8002;51.196;7.010;2024-01-11T06:25:56;24.13;;;14.57;;
15799;SDS011;8002;51.196;7.010;2024-01-11T06:28:22;18.23;;;12.40;;
15799;SDS011;8002;51.196;7.010;2024-01-11T06:30:48;20.30;;;13.33;;
15799;SDS011;8002;51.196;7.010;2024-01-11T06:33:15;19.60;;;14.20;;
15799;SDS011;8002;51.196;7.010;2024-01-11T06:35:41;18.50;;;14.43;;
15799;SDS011;8002;51.196;7.010;2024-01-11T06:38:07;20.07;;;13.30;;
15799;SDS011;8002;51.196;7.010;2024-01-11T06:40:34;20.10;;;14.80;;
15799;SDS011;8002;51.196;7.010;2024-01-11T06:43:01;19.30;;;13.10;;
15799;SDS011;8002;51.196;7.010;2024-01-11T06:45:28;20.10;;;13.63;;
15799;SDS011;8002;51.196;7.010;2024-01-11T06:47:54;21.43;;;14.07;;
15799;SDS011;8002;51.196;7.010;2024-01-11T06:50:20;22.40;;;14.33;;
15799;SDS011;8002;51.196;7.010;2024-01-11T06:52:47;21.90;;;13.90;;
15799;SDS011;8002;51.196;7.010;2024-01-11T06:55:13;21.17;;;13.57;;
15799;SDS011;8002;51.196;7.010;2024-01-11T06:57:39;19.43;;;13.47;;
15799;SDS011;8002;51.196;7.010;2024-01-11T07:00:08;19.13;;;13.77;;
15799;SDS011;8002;51.196;7.010;2024-01-11T07:02:35;21.23;;;15.07;;
15799;SDS011;8002;51.196;7.010;2024-01-11T07:05:01;25.13;;;17.80;;
15799;SDS011;8002;51.196;7.010;2024-01-11T07:07:28;25.30;;;14.83;;
15799;SDS011;8002;51.196;7.010;2024-01-11T07:09:54;28.63;;;17.13;;
15799;SDS011;8002;51.196;7.010;2024-01-11T07:12:21;21.50;;;14.17;;
15799;SDS011;8002;51.196;7.010;2024-01-11T07:14:47;18.67;;;13.87;;
15799;SDS011;8002;51.196;7.010;2024-01-11T07:17:15;19.10;;;13.63;;
15799;SDS011;8002;51.196;7.010;2024-01-11T07:19:41;19.60;;;14.87;;
15799;SDS011;8002;51.196;7.010;2024-01-11T07:22:07;18.67;;;13.67;;
15799;SDS011;8002;51.196;7.010;2024-01-11T07:24:33;20.30;;;14.27;;
15799;SDS011;8002;51.196;7.010;2024-01-11T07:27:02;20.30;;;13.80;;
15799;SDS011;8002;51.196;7.010;2024-01-11T07:29:28;18.67;;;13.53;;
15799;SDS011;8002;51.196;7.010;2024-01-11T07:31:55;20.13;;;12.97;;
15799;SDS011;8002;51.196;7.010;2024-01-11T07:34:22;18.90;;;14.07;;
15799;SDS011;8002;51.196;7.010;2024-01-11T07:36:49;21.37;;;13.90;;
15799;SDS011;8002;51.196;7.010;2024-01-11T07:39:15;17.60;;;13.23;;
15799;SDS011;8002;51.196;7.010;2024-01-11T07:41:41;18.50;;;13.13;;
15799;SDS011;8002;51.196;7.010;2024-01-11T07:44:08;19.80;;;14.67;;
15799;SDS011;8002;51.196;7.010;2024-01-11T07:46:34;20.00;;;13.23;;
15799;SDS011;8002;51.196;7.010;2024-01-11T07:49:01;23.57;;;14.63;;
15799;SDS011;8002;51.196;7.010;2024-01-11T07:51:29;17.97;;;13.23;;
15799;SDS011;8002;51.196;7.010;2024-01-11T07:53:55;18.13;;;12.47;;
15799;SDS011;8002;51.196;7.010;2024-01-11T07:56:21;21.73;;;13.37;;
15799;SDS011;8002;51.196;7.010;2024-01-11T07:58:48;20.63;;;14.33;;
15799;SDS011;8002;51.196;7.010;2024-01-11T08:01:15;19.83;;;14.60;;
15799;SDS011;8002;51.196;7.010;2024-01-11T08:03:42;21.07;;;14.40;;
15799;SDS011;8002;51.196;7.010;2024-01-11T08:06:10;22.33;;;14.73;;
15799;SDS011;8002;51.196;7.010;2024-01-11T08:08:37;19.17;;;13.73;;
15799;SDS011;8002;51.196;7.010;2024-01-11T08:11:04;21.33;;;14.83;;
15799;SDS011;8002;51.196;7.010;2024-01-11T08:13:31;17.43;;;13.20;;
15799;SDS011;8002;51.196;7.010;2024-01-11T08:15:57;23.67;;;16.23;;
15799;SDS011;8002;51.196;7.010;2024-01-11T08:18:23;30.33;;;20.70;;
15799;SDS011;8002;51.196;7.010;2024-01-11T08:20:51;28.93;;;18.57;;
15799;SDS011;8002;51.196;7.010;2024-01-11T08:23:18;28.17;;;18.30;;
15799;SDS011;8002;51.196;7.010;2024-01-11T08:25:45;22.80;;;15.27;;
15799;SDS011;8002;51.196;7.010;2024-01-11T08:28:12;24.07;;;16.87;;
15799;SDS011;8002;51.196;7.010;2024-01-11T08:30:38;24.33;;;16.67;;
15799;SDS011;8002;51.196;7.010;2024-01-11T08:33:04;20.57;;;14.57;;
15799;SDS011;8002;51.196;7.010;2024-01-11T08:35:30;17.67;;;14.23;;
15799;SDS011;8002;51.196;7.010;2024-01-11T08:37:57;18.67;;;13.40;;
15799;SDS011;8002;51.196;7.010;2024-01-11T08:40:23;21.63;;;14.40;;
15799;SDS011;8002;51.196;7.010;2024-01-11T08:42:51;20.53;;;14.80;;
15799;SDS011;8002;51.196;7.010;2024-01-11T08:45:18;18.23;;;14.37;;
15799;SDS011;8002;51.196;7.010;2024-01-11T08:47:44;22.50;;;13.80;;
15799;SDS011;8002;51.196;7.010;2024-01-11T08:50:12;18.23;;;14.27;;
15799;SDS011;8002;51.196;7.010;2024-01-11T08:52:38;23.53;;;16.50;;
15799;SDS011;8002;51.196;7.010;2024-01-11T08:55:05;23.87;;;16.67;;
15799;SDS011;8002;51.196;7.010;2024-01-11T08:57:31;20.93;;;15.20;;
15799;SDS011;8002;51.196;7.010;2024-01-11T08:59:59;22.33;;;14.50;;
15799;SDS011;8002;51.196;7.010;2024-01-11T09:02:25;20.10;;;15.47;;
15799;SDS011;8002;51.196;7.010;2024-01-11T09:04:51;19.33;;;14.43;;
15799;SDS011;8002;51.196;7.010;2024-01-11T09:07:17;20.00;;;15.80;;
15799;SDS011;8002;51.196;7.010;2024-01-11T09:09:44;22.00;;;16.20;;
15799;SDS011;8002;51.196;7.010;2024-01-11T09:12:10;23.30;;;15.83;;
15799;SDS011;8002;51.196;7.010;2024-01-11T09:14:37;24.77;;;16.27;;
15799;SDS011;8002;51.196;7.010;2024-01-11T09:17:05;24.30;;;15.73;;
15799;SDS011;8002;51.196;7.010;2024-01-11T09:19:33;22.20;;;16.40;;
15799;SDS011;8002;51.196;7.010;2024-01-11T09:21:59;21.07;;;15.63;;
15799;SDS011;8002;51.196;7.010;2024-01-11T09:24:26;22.70;;;15.97;;
15799;SDS011;8002;51.196;7.010;2024-01-11T09:26:52;20.23;;;16.90;;
15799;SDS011;8002;51.196;7.010;2024-01-11T09:29:19;22.37;;;17.40;;
15799;SDS011;8002;51.196;7.010;2024-01-11T09:31:45;23.30;;;18.30;;
15799;SDS011;8002;51.196;7.010;2024-01-11T09:34:13;26.33;;;17.73;;
15799;SDS011;8002;51.196;7.010;2024-01-11T09:36:39;24.37;;;18.07;;
15799;SDS011;8002;51.196;7.010;2024-01-11T09:39:05;21.17;;;16.70;;
15799;SDS011;8002;51.196;7.010;2024-01-11T09:41:32;25.10;;;17.77;;
15799;SDS011;8002;51.196;7.010;2024-01-11T09:44:00;24.87;;;16.40;;
15799;SDS011;8002;51.196;7.010;2024-01-11T09:46:29;18.80;;;15.93;;
15799;SDS011;8002;51.196;7.010;2024-01-11T09:48:56;20.23;;;16.87;;
15799;SDS011;8002;51.196;7.010;2024-01-11T09:51:24;20.63;;;16.90;;
15799;SDS011;8002;51.196;7.010;2024-01-11T09:53:51;22.30;;;17.70;;
15799;SDS011;8002;51.196;7.010;2024-01-11T09:56:19;19.90;;;16.50;;
15799;SDS011;8002;51.196;7.010;2024-01-11T09:58:46;21.13;;;17.67;;
15799;SDS011;8002;51.196;7.010;2024-01-11T10:01:13;20.47;;;16.77;;
15799;SDS011;8002;51.196;7.010;2024-01-11T10:03:40;22.60;;;17.23;;
15799;SDS011;8002;51.196;7.010;2024-01-11T10:06:06;24.43;;;18.87;;
15799;SDS011;8002;51.196;7.010;2024-01-11T10:08:34;22.03;;;17.57;;
15799;SDS011;8002;51.196;7.010;2024-01-11T10:11:00;22.93;;;19.03;;
15799;SDS011;8002;51.196;7.010;2024-01-11T10:13:28;21.93;;;17.33;;
15799;SDS011;8002;51.196;7.010;2024-01-11T10:16:04;20.23;;;17.30;;
15799;SDS011;8002;51.196;7.010;2024-01-11T10:18:31;21.73;;;17.53;;
15799;SDS011;8002;51.196;7.010;2024-01-11T10:20:57;20.17;;;17.75;;
15799;SDS011;8002;51.196;7.010;2024-01-11T10:23:23;21.30;;;17.88;;
15799;SDS011;8002;51.196;7.010;2024-01-11T10:25:51;19.90;;;17.42;;
15799;SDS011;8002;51.196;7.010;2024-01-11T10:28:18;19.85;;;17.60;;
15799;SDS011;8002;51.196;7.010;2024-01-11T10:30:45;18.45;;;16.40;;
15799;SDS011;8002;51.196;7.010;2024-01-11T10:33:11;19.15;;;17.02;;
15799;SDS011;8002;51.196;7.010;2024-01-11T10:35:38;22.38;;;17.13;;
15799;SDS011;8002;51.196;7.010;2024-01-11T10:38:05;18.00;;;16.27;;
15799;SDS011;8002;51.196;7.010;2024-01-11T10:40:34;19.63;;;17.55;;
15799;SDS011;8002;51.196;7.010;2024-01-11T10:43:02;19.38;;;17.30;;
15799;SDS011;8002;51.196;7.010;2024-01-11T10:45:29;21.58;;;18.13;;
15799;SDS011;8002;51.196;7.010;2024-01-11T10:48:00;22.90;;;18.45;;
15799;SDS011;8002;51.196;7.010;2024-01-11T10:50:29;21.75;;;18.60;;
15799;SDS011;8002;51.196;7.010;2024-01-11T10:52:59;21.10;;;17.02;;
15799;SDS011;8002;51.196;7.010;2024-01-11T10:55:28;21.90;;;19.08;;
15799;SDS011;8002;51.196;7.010;2024-01-11T10:57:56;19.13;;;17.13;;
15799;SDS011;8002;51.196;7.010;2024-01-11T11:00:25;20.95;;;17.90;;
15799;SDS011;8002;51.196;7.010;2024-01-11T11:02:51;21.55;;;17.42;;
15799;SDS011;8002;51.196;7.010;2024-01-11T11:05:19;19.35;;;17.40;;
15799;SDS011;8002;51.196;7.010;2024-01-11T11:07:47;20.63;;;17.05;;
15799;SDS011;8002;51.196;7.010;2024-01-11T11:10:14;19.00;;;17.05;;
15799;SDS011;8002;51.196;7.010;2024-01-11T11:12:41;19.25;;;17.27;;
15799;SDS011;8002;51.196;7.010;2024-01-11T11:15:08;18.30;;;16.05;;
15799;SDS011;8002;51.196;7.010;2024-01-11T11:17:38;19.10;;;17.10;;
15799;SDS011;8002;51.196;7.010;2024-01-11T11:20:05;18.50;;;16.55;;
15799;SDS011;8002;51.196;7.010;2024-01-11T11:22:33;18.83;;;16.75;;
15799;SDS011;8002;51.196;7.010;2024-01-11T11:25:03;21.35;;;18.15;;
15799;SDS011;8002;51.196;7.010;2024-01-11T11:27:30;20.23;;;18.13;;
15799;SDS011;8002;51.196;7.010;2024-01-11T11:29:57;18.98;;;17.05;;
15799;SDS011;8002;51.196;7.010;2024-01-11T11:32:34;19.58;;;15.95;;
15799;SDS011;8002;51.196;7.010;2024-01-11T11:35:02;18.83;;;16.83;;
15799;SDS011;8002;51.196;7.010;2024-01-11T11:37:29;19.58;;;17.17;;
15799;SDS011;8002;51.196;7.010;2024-01-11T11:39:57;18.63;;;16.65;;
15799;SDS011;8002;51.196;7.010;2024-01-11T11:42:23;18.88;;;16.95;;
15799;SDS011;8002;51.196;7.010;2024-01-11T11:44:51;17.75;;;16.15;;
15799;SDS011;8002;51.196;7.010;2024-01-11T11:47:18;18.45;;;16.38;;
15799;SDS011;8002;51.196;7.010;2024-01-11T11:49:57;18.63;;;16.77;;
15799;SDS011;8002;51.196;7.010;2024-01-11T11:52:26;19.08;;;16.95;;
15799;SDS011;8002;51.196;7.010;2024-01-11T11:54:52;18.17;;;16.23;;
15799;SDS011;8002;51.196;7.010;2024-01-11T11:57:19;18.33;;;16.27;;
15799;SDS011;8002;51.196;7.010;2024-01-11T11:59:46;19.13;;;17.13;;
15799;SDS011;8002;51.196;7.010;2024-01-11T12:02:14;18.88;;;16.90;;
15799;SDS011;8002;51.196;7.010;2024-01-11T12:04:45;19.08;;;17.08;;
15799;SDS011;8002;51.196;7.010;2024-01-11T12:07:12;19.40;;;16.77;;
15799;SDS011;8002;51.196;7.010;2024-01-11T12:09:39;16.75;;;15.07;;
15799;SDS011;8002;51.196;7.010;2024-01-11T12:12:06;16.30;;;14.60;;
15799;SDS011;8002;51.196;7.010;2024-01-11T12:14:33;15.95;;;13.82;;
15799;SDS011;8002;51.196;7.010;2024-01-11T12:16:59;15.13;;;13.40;;
15799;SDS011;8002;51.196;7.010;2024-01-11T12:19:25;15.35;;;13.73;;
15799;SDS011;8002;51.196;7.010;2024-01-11T12:21:52;15.55;;;13.93;;
15799;SDS011;8002;51.196;7.010;2024-01-11T12:24:19;14.45;;;12.93;;
15799;SDS011;8002;51.196;7.010;2024-01-11T12:26:48;14.68;;;13.15;;
15799;SDS011;8002;51.196;7.010;2024-01-11T12:29:15;13.35;;;11.80;;
15799;SDS011;8002;51.196;7.010;2024-01-11T12:31:43;13.95;;;12.35;;
15799;SDS011;8002;51.196;7.010;2024-01-11T12:34:09;12.63;;;11.35;;
15799;SDS011;8002;51.196;7.010;2024-01-11T12:36:37;12.73;;;11.43;;
15799;SDS011;8002;51.196;7.010;2024-01-11T12:39:03;16.38;;;12.80;;
15799;SDS011;8002;51.196;7.010;2024-01-11T12:41:31;13.13;;;11.75;;
15799;SDS011;8002;51.196;7.010;2024-01-11T12:43:59;14.88;;;12.82;;
15799;SDS011;8002;51.196;7.010;2024-01-11T12:46:26;18.08;;;12.00;;
15799;SDS011;8002;51.196;7.010;2024-01-11T12:48:52;14.88;;;12.93;;
15799;SDS011;8002;51.196;7.010;2024-01-11T12:51:19;15.75;;;14.02;;
15799;SDS011;8002;51.196;7.010;2024-01-11T12:53:45;20.90;;;15.93;;
15799;SDS011;8002;51.196;7.010;2024-01-11T12:56:14;18.57;;;16.57;;
15799;SDS011;8002;51.196;7.010;2024-01-11T12:58:41;20.33;;;15.30;;
15799;SDS011;8002;51.196;7.010;2024-01-11T13:01:08;20.77;;;14.53;;
15799;SDS011;8002;51.196;7.010;2024-01-11T13:03:35;17.57;;;13.67;;
15799;SDS011;8002;51.196;7.010;2024-01-11T13:06:02;18.87;;;14.77;;
15799;SDS011;8002;51.196;7.010;2024-01-11T13:08:29;17.63;;;13.40;;
15799;SDS011;8002;51.196;7.010;2024-01-11T13:10:56;17.47;;;13.33;;
15799;SDS011;8002;51.196;7.010;2024-01-11T13:13:22;18.33;;;13.53;;
15799;SDS011;8002;51.196;7.010;2024-01-11T13:15:49;18.10;;;14.20;;
15799;SDS011;8002;51.196;7.010;2024-01-11T13:18:18;16.90;;;13.83;;
15799;SDS011;8002;51.196;7.010;2024-01-11T13:20:44;16.97;;;12.73;;
15799;SDS011;8002;51.196;7.010;2024-01-11T13:23:12;18.47;;;13.73;;
15799;SDS011;8002;51.196;7.010;2024-01-11T13:25:39;20.13;;;14.50;;
15799;SDS011;8002;51.196;7.010;2024-01-11T13:28:05;19.27;;;13.50;;
15799;SDS011;8002;51.196;7.010;2024-01-11T13:30:32;21.53;;;15.30;;
15799;SDS011;8002;51.196;7.010;2024-01-11T13:32:58;21.23;;;15.30;;
15799;SDS011;8002;51.196;7.010;2024-01-11T13:35:26;18.53;;;14.17;;
15799;SDS011;8002;51.196;7.010;2024-01-11T13:37:52;22.80;;;15.77;;
15799;SDS011;8002;51.196;7.010;2024-01-11T13:40:19;21.60;;;15.23;;
15799;SDS011;8002;51.196;7.010;2024-01-11T13:42:45;22.47;;;15.13;;
15799;SDS011;8002;51.196;7.010;2024-01-11T13:45:13;18.83;;;14.67;;
15799;SDS011;8002;51.196;7.010;2024-01-11T13:47:40;23.97;;;16.27;;
15799;SDS011;8002;51.196;7.010;2024-01-11T13:50:06;21.70;;;16.03;;
15799;SDS011;8002;51.196;7.010;2024-01-11T13:52:34;21.27;;;15.47;;
15799;SDS011;8002;51.196;7.010;2024-01-11T13:55:00;21.00;;;15.23;;
15799;SDS011;8002;51.196;7.010;2024-01-11T13:57:28;20.70;;;14.17;;
15799;SDS011;8002;51.196;7.010;2024-01-11T13:59:54;22.30;;;15.60;;
15799;SDS011;8002;51.196;7.010;2024-01-11T14:02:21;20.57;;;15.47;;
15799;SDS011;8002;51.196;7.010;2024-01-11T14:04:47;25.30;;;15.33;;
15799;SDS011;8002;51.196;7.010;2024-01-11T14:07:16;24.27;;;16.33;;
15799;SDS011;8002;51.196;7.010;2024-01-11T14:09:44;23.77;;;15.17;;
15799;SDS011;8002;51.196;7.010;2024-01-11T14:12:11;21.27;;;14.37;;
15799;SDS011;8002;51.196;7.010;2024-01-11T14:14:37;22.53;;;14.43;;
15799;SDS011;8002;51.196;7.010;2024-01-11T14:17:03;17.17;;;12.60;;
15799;SDS011;8002;51.196;7.010;2024-01-11T14:19:30;20.17;;;13.60;;
15799;SDS011;8002;51.196;7.010;2024-01-11T14:21:56;21.60;;;13.70;;
15799;SDS011;8002;51.196;7.010;2024-01-11T14:24:22;24.53;;;14.50;;
15799;SDS011;8002;51.196;7.010;2024-01-11T14:26:51;22.40;;;15.13;;
15799;SDS011;8002;51.196;7.010;2024-01-11T14:29:18;22.53;;;13.93;;
15799;SDS011;8002;51.196;7.010;2024-01-11T14:31:44;18.00;;;14.00;;